createdAt,value
2022-10-22T00:01:27.312Z,5.10
2022-10-22T00:03:55.787Z,7.10
2022-10-22T00:06:24.143Z,4.30
2022-10-22T00:08:53.121Z,4.20
2022-10-22T00:11:21.720Z,3.40
2022-10-22T00:13:51.207Z,6.10
2022-10-22T00:16:19.766Z,4.03
2022-10-22T00:18:49.612Z,3.37
2022-10-22T00:21:18.192Z,3.80
2022-10-22T00:23:46.720Z,4.23
2022-10-22T00:26:15.660Z,4.37
2022-10-22T00:28:44.093Z,5.30
2022-10-22T00:31:12.417Z,4.87
2022-10-22T00:33:40.760Z,5.10
2022-10-22T00:36:11.079Z,5.20
2022-10-22T00:38:39.682Z,5.70
2022-10-22T00:41:09.033Z,6.27
2022-10-22T00:43:56.159Z,5.43
2022-10-22T00:46:24.482Z,5.67
2022-10-22T00:48:53.782Z,5.97
2022-10-22T00:51:26.782Z,5.47
2022-10-22T00:53:58.853Z,6.07
2022-10-22T00:56:27.570Z,5.83
2022-10-22T00:59:00.660Z,5.70
2022-10-22T01:01:32.371Z,5.93
2022-10-22T01:04:01.209Z,6.00
2022-10-22T01:06:34.418Z,5.20
2022-10-22T01:09:16.924Z,5.80
2022-10-22T01:12:00.728Z,5.67
2022-10-22T01:14:37.878Z,5.60
2022-10-22T01:17:10.855Z,5.00
2022-10-22T01:20:00.645Z,5.00
2022-10-22T01:22:37.301Z,4.90
2022-10-22T01:25:12.232Z,4.00
2022-10-22T01:27:55.672Z,4.17
2022-10-22T01:30:27.238Z,5.00
2022-10-22T01:32:59.711Z,4.40
2022-10-22T01:35:35.134Z,4.23
2022-10-22T01:38:07.394Z,4.30
2022-10-22T01:40:36.540Z,4.20
2022-10-22T01:43:08.213Z,4.53
2022-10-22T01:45:43.165Z,3.20
2022-10-22T01:48:31.350Z,3.77
2022-10-22T01:51:18.147Z,3.47
2022-10-22T01:53:55.175Z,3.17
2022-10-22T01:56:42.030Z,3.27
2022-10-22T01:59:19.174Z,3.27
2022-10-22T02:01:57.662Z,3.30
2022-10-22T02:04:31.759Z,3.20
2022-10-22T02:07:03.559Z,2.90
2022-10-22T02:09:34.023Z,3.13
2022-10-22T02:12:06.660Z,3.90
2022-10-22T02:14:40.904Z,3.40
2022-10-22T02:17:17.260Z,3.10
2022-10-22T02:19:53.799Z,3.40
2022-10-22T02:22:22.576Z,3.43
2022-10-22T02:24:51.249Z,3.20
2022-10-22T02:27:28.031Z,3.00
2022-10-22T02:30:05.590Z,3.33
2022-10-22T02:32:41.089Z,2.93
2022-10-22T02:35:14.641Z,3.60
2022-10-22T02:37:44.190Z,3.10
2022-10-22T02:40:13.312Z,3.80
2022-10-22T02:42:43.398Z,3.90
2022-10-22T02:45:12.173Z,3.90
2022-10-22T02:47:41.979Z,3.30
2022-10-22T02:50:10.975Z,3.23
2022-10-22T02:52:39.796Z,3.40
2022-10-22T02:55:09.455Z,3.20
2022-10-22T02:57:38.023Z,3.53
2022-10-22T03:00:09.086Z,3.27
2022-10-22T03:02:37.622Z,3.40
2022-10-22T03:05:08.885Z,3.90
2022-10-22T03:07:37.443Z,3.67
2022-10-22T03:10:07.360Z,3.70
2022-10-22T03:12:35.698Z,4.67
2022-10-22T03:15:04.173Z,3.73
2022-10-22T03:17:32.477Z,3.93
2022-10-22T03:20:00.837Z,3.70
2022-10-22T03:22:32.376Z,3.60
2022-10-22T03:25:05.118Z,3.23
2022-10-22T03:27:34.909Z,3.30
2022-10-22T03:30:04.029Z,3.30
2022-10-22T03:32:32.507Z,3.70
2022-10-22T03:35:01.056Z,3.20
2022-10-22T03:37:31.140Z,3.87
2022-10-22T03:39:59.825Z,3.20
2022-10-22T03:42:28.231Z,3.20
2022-10-22T03:44:56.628Z,3.73
2022-10-22T03:47:25.449Z,3.27
2022-10-22T03:49:53.961Z,3.53
2022-10-22T03:52:22.537Z,3.07
2022-10-22T03:54:52.243Z,3.40
2022-10-22T03:57:20.573Z,3.23
2022-10-22T03:59:49.131Z,4.50
2022-10-22T04:02:17.816Z,4.87
2022-10-22T04:04:46.119Z,3.40
2022-10-22T04:07:14.645Z,3.53
2022-10-22T04:09:43.131Z,3.50
2022-10-22T04:12:12.969Z,3.50
2022-10-22T04:14:41.490Z,3.00
2022-10-22T04:17:09.821Z,3.37
2022-10-22T04:19:38.293Z,3.30
2022-10-22T04:22:06.755Z,3.67
2022-10-22T04:24:35.031Z,3.60
2022-10-22T04:27:03.426Z,3.37
2022-10-22T04:29:33.073Z,3.57
2022-10-22T04:32:01.365Z,3.20
2022-10-22T04:34:30.601Z,3.00
2022-10-22T04:36:59.544Z,3.73
2022-10-22T04:39:27.868Z,3.70
2022-10-22T04:41:56.271Z,3.73
2022-10-22T04:44:24.535Z,3.30
2022-10-22T04:46:54.358Z,3.57
2022-10-22T04:49:22.806Z,3.47
2022-10-22T04:51:51.195Z,2.80
2022-10-22T04:54:19.468Z,4.03
2022-10-22T04:56:47.829Z,3.80
2022-10-22T04:59:16.294Z,4.10
2022-10-22T05:01:45.978Z,3.47
2022-10-22T05:04:18.176Z,2.83
2022-10-22T05:06:46.635Z,3.60
2022-10-22T05:09:18.258Z,4.00
2022-10-22T05:11:49.679Z,2.77
2022-10-22T05:14:21.152Z,3.00
2022-10-22T05:16:50.419Z,3.43
2022-10-22T05:19:23.999Z,3.43
2022-10-22T05:21:53.399Z,2.80
2022-10-22T05:24:22.033Z,2.83
2022-10-22T05:26:51.166Z,3.90
2022-10-22T05:29:20.186Z,2.83
2022-10-22T05:31:48.653Z,2.77
2022-10-22T05:34:17.472Z,2.80
2022-10-22T05:36:47.303Z,3.47
2022-10-22T05:39:15.697Z,3.23
2022-10-22T05:41:44.338Z,3.10
2022-10-22T05:44:13.832Z,2.90
2022-10-22T05:46:43.410Z,3.30
2022-10-22T05:49:15.682Z,2.83
2022-10-22T05:51:43.982Z,2.87
2022-10-22T05:54:20.851Z,2.43
2022-10-22T05:56:49.753Z,2.90
2022-10-22T05:59:18.104Z,2.53
2022-10-22T06:01:46.514Z,2.67
2022-10-22T06:04:16.209Z,3.03
2022-10-22T06:06:47.551Z,2.20
2022-10-22T06:09:21.461Z,2.60
2022-10-22T06:11:51.159Z,2.70
2022-10-22T06:14:20.381Z,2.50
2022-10-22T06:16:59.023Z,2.03
2022-10-22T06:19:31.171Z,2.30
2022-10-22T06:21:59.745Z,2.33
2022-10-22T06:24:29.477Z,2.13
2022-10-22T06:26:57.997Z,2.43
2022-10-22T06:29:26.528Z,2.07
2022-10-22T06:31:54.886Z,2.13
2022-10-22T06:34:23.532Z,2.40
2022-10-22T06:36:52.173Z,2.40
2022-10-22T06:39:20.891Z,2.00
2022-10-22T06:41:50.686Z,2.70
2022-10-22T06:44:21.309Z,3.00
2022-10-22T06:46:52.125Z,2.20
2022-10-22T06:49:22.176Z,2.33
2022-10-22T06:51:53.515Z,2.27
2022-10-22T06:54:22.573Z,2.53
2022-10-22T06:56:52.338Z,2.20
2022-10-22T06:59:20.707Z,2.13
2022-10-22T07:01:49.186Z,2.03
2022-10-22T07:04:17.807Z,1.67
2022-10-22T07:06:46.090Z,2.00
2022-10-22T07:09:14.708Z,1.93
2022-10-22T07:11:45.950Z,2.43
2022-10-22T07:14:16.127Z,1.70
2022-10-22T07:16:45.715Z,2.00
2022-10-22T07:19:14.863Z,1.70
2022-10-22T07:21:43.437Z,1.70
2022-10-22T07:24:12.233Z,1.53
2022-10-22T07:26:40.593Z,1.97
2022-10-22T07:29:10.047Z,1.73
2022-10-22T07:31:39.879Z,2.50
2022-10-22T07:34:08.289Z,1.70
2022-10-22T07:36:37.090Z,2.27
2022-10-22T07:39:06.259Z,1.63
2022-10-22T07:41:34.902Z,1.90
2022-10-22T07:44:03.289Z,1.90
2022-10-22T07:46:31.876Z,1.60
2022-10-22T07:49:01.582Z,1.90
2022-10-22T07:51:29.891Z,1.57
2022-10-22T07:53:58.283Z,1.93
2022-10-22T07:56:26.660Z,1.60
2022-10-22T07:58:55.130Z,2.17
2022-10-22T08:01:23.852Z,2.47
2022-10-22T08:03:52.323Z,1.70
2022-10-22T08:06:23.806Z,2.07
2022-10-22T08:08:52.320Z,1.50
2022-10-22T08:11:20.630Z,1.83
2022-10-22T08:13:49.083Z,1.60
2022-10-22T08:16:17.419Z,1.93
2022-10-22T08:18:45.813Z,2.10
2022-10-22T08:21:14.464Z,1.90
2022-10-22T08:23:44.254Z,2.10
2022-10-22T08:26:13.001Z,1.53
2022-10-22T08:28:41.641Z,1.50
2022-10-22T08:31:11.466Z,1.60
2022-10-22T08:33:40.095Z,1.70
2022-10-22T08:36:10.067Z,1.77
2022-10-22T08:38:38.708Z,1.70
2022-10-22T08:41:15.732Z,1.50
2022-10-22T08:44:35.915Z,1.63
2022-10-22T08:47:25.586Z,1.77
2022-10-22T08:49:57.020Z,1.80
2022-10-22T08:52:25.831Z,1.60
2022-10-22T08:54:58.293Z,1.40
2022-10-22T08:57:47.573Z,1.70
2022-10-22T09:00:25.228Z,1.77
2022-10-22T09:03:13.377Z,2.07
2022-10-22T09:05:52.870Z,1.60
2022-10-22T09:08:21.879Z,1.53
2022-10-22T09:10:55.709Z,2.10
2022-10-22T09:13:25.936Z,1.87
2022-10-22T09:15:58.724Z,1.30
2022-10-22T09:18:39.731Z,1.60
2022-10-22T09:21:20.381Z,1.47
2022-10-22T09:24:05.839Z,1.77
2022-10-22T09:26:38.781Z,1.53
2022-10-22T09:29:18.343Z,1.63
2022-10-22T09:31:46.988Z,1.80
2022-10-22T09:34:20.549Z,2.00
2022-10-22T09:36:48.924Z,1.50
2022-10-22T09:39:25.859Z,1.80
2022-10-22T09:41:54.390Z,1.73
2022-10-22T09:44:24.248Z,1.70
2022-10-22T09:46:52.729Z,1.70
2022-10-22T09:49:24.518Z,1.70
2022-10-22T09:51:56.737Z,1.60
2022-10-22T09:54:27.684Z,1.87
2022-10-22T09:57:00.080Z,2.27
2022-10-22T09:59:33.806Z,1.67
2022-10-22T10:02:19.579Z,1.77
2022-10-22T10:04:52.690Z,1.70
2022-10-22T10:07:25.053Z,1.63
2022-10-22T10:09:55.730Z,1.23
2022-10-22T10:12:39.522Z,1.53
2022-10-22T10:15:21.695Z,1.47
2022-10-22T10:18:02.230Z,2.03
2022-10-22T10:20:44.446Z,1.70
2022-10-22T10:23:24.428Z,1.80
2022-10-22T10:25:59.813Z,1.37
2022-10-22T10:28:46.399Z,1.73
2022-10-22T10:31:32.429Z,1.97
2022-10-22T10:34:16.052Z,1.70
2022-10-22T10:36:56.439Z,2.00
2022-10-22T10:39:35.762Z,1.40
2022-10-22T10:42:21.009Z,1.80
2022-10-22T10:45:11.961Z,1.53
2022-10-22T10:48:24.991Z,1.33
2022-10-22T10:51:08.564Z,1.67
2022-10-22T10:53:56.409Z,2.00
2022-10-22T10:56:41.321Z,1.60
2022-10-22T10:59:20.278Z,1.57
2022-10-22T11:02:11.234Z,1.77
2022-10-22T11:05:16.171Z,1.70
2022-10-22T11:07:55.770Z,2.70
2022-10-22T11:10:33.224Z,2.00
2022-10-22T11:13:12.781Z,2.27
2022-10-22T11:15:42.452Z,1.83
2022-10-22T11:18:22.396Z,1.87
2022-10-22T11:21:05.982Z,2.57
2022-10-22T11:23:42.005Z,2.33
2022-10-22T11:26:18.946Z,2.10
2022-10-22T11:28:53.712Z,2.43
2022-10-22T11:31:25.506Z,2.13
2022-10-22T11:34:28.410Z,2.27
2022-10-22T11:36:57.415Z,2.53
2022-10-22T11:39:45.255Z,1.90
2022-10-22T11:42:21.957Z,2.57
2022-10-22T11:45:01.677Z,2.03
2022-10-22T11:47:33.813Z,2.00
2022-10-22T11:50:22.836Z,1.90
2022-10-22T11:53:04.313Z,2.37
2022-10-22T11:55:48.164Z,2.07
2022-10-22T11:58:43.991Z,2.10
2022-10-22T12:01:25.641Z,2.03
2022-10-22T12:04:16.086Z,2.00
2022-10-22T12:07:00.469Z,1.80
2022-10-22T12:09:34.487Z,1.43
2022-10-22T12:12:15.842Z,1.60
2022-10-22T12:14:56.742Z,1.60
2022-10-22T12:17:26.815Z,1.53
2022-10-22T12:20:03.933Z,2.10
2022-10-22T12:22:37.263Z,2.20
2022-10-22T12:25:22.326Z,2.00
2022-10-22T12:27:55.743Z,3.40
2022-10-22T12:30:26.663Z,2.13
2022-10-22T12:33:00.456Z,2.00
2022-10-22T12:35:32.450Z,2.00
2022-10-22T12:38:06.404Z,1.60
2022-10-22T12:40:37.400Z,2.20
2022-10-22T12:43:14.585Z,2.30
2022-10-22T12:45:47.181Z,2.03
2022-10-22T12:48:20.435Z,2.50
2022-10-22T12:50:53.317Z,2.13
2022-10-22T12:53:27.192Z,1.47
2022-10-22T12:56:02.194Z,1.93
2022-10-22T12:58:35.187Z,1.93
2022-10-22T13:01:03.959Z,1.70
2022-10-22T13:03:38.644Z,2.10
2022-10-22T13:06:15.788Z,2.03
2022-10-22T13:08:44.314Z,1.90
2022-10-22T13:11:14.043Z,2.17
2022-10-22T13:13:47.026Z,1.90
2022-10-22T13:16:24.607Z,1.30
2022-10-22T13:18:54.512Z,2.10
2022-10-22T13:21:30.351Z,2.70
2022-10-22T13:24:01.922Z,1.50
2022-10-22T13:26:38.061Z,2.00
2022-10-22T13:29:14.657Z,1.70
2022-10-22T13:31:49.150Z,2.43
2022-10-22T13:34:20.869Z,1.80
2022-10-22T13:36:49.605Z,1.70
2022-10-22T13:39:20.279Z,1.80
2022-10-22T13:41:53.451Z,1.90
2022-10-22T13:44:22.077Z,1.70
2022-10-22T13:46:50.726Z,1.97
2022-10-22T13:49:22.749Z,1.40
2022-10-22T13:51:52.714Z,1.80
2022-10-22T13:54:25.421Z,1.90
2022-10-22T13:56:55.076Z,1.70
2022-10-22T13:59:25.559Z,1.57
2022-10-22T14:01:55.776Z,2.50
2022-10-22T14:04:24.181Z,1.80
2022-10-22T14:06:52.821Z,1.73
2022-10-22T14:09:21.662Z,1.77
2022-10-22T14:11:50.034Z,1.67
2022-10-22T14:14:19.791Z,1.40
2022-10-22T14:16:48.092Z,3.27
2022-10-22T14:19:19.083Z,1.80
2022-10-22T14:21:49.266Z,2.13
2022-10-22T14:24:18.066Z,1.90
2022-10-22T14:26:46.439Z,1.70
2022-10-22T14:29:14.750Z,2.20
2022-10-22T14:31:45.503Z,2.00
2022-10-22T14:34:16.406Z,2.43
2022-10-22T14:36:45.049Z,1.67
2022-10-22T14:39:13.787Z,2.50
2022-10-22T14:41:43.619Z,1.50
2022-10-22T14:44:14.470Z,1.90
2022-10-22T14:46:45.205Z,1.70
2022-10-22T14:49:13.701Z,2.27
2022-10-22T14:51:42.077Z,1.90
2022-10-22T14:54:10.312Z,1.90
2022-10-22T14:56:38.709Z,2.50
2022-10-22T14:59:07.038Z,2.70
2022-10-22T15:01:35.394Z,2.40
2022-10-22T15:04:05.497Z,2.30
2022-10-22T15:06:34.355Z,2.60
2022-10-22T15:09:02.865Z,2.37
2022-10-22T15:11:31.481Z,2.20
2022-10-22T15:13:59.922Z,2.50
2022-10-22T15:16:28.273Z,2.40
2022-10-22T15:18:57.299Z,2.07
2022-10-22T15:21:27.091Z,2.00
2022-10-22T15:23:55.662Z,2.20
2022-10-22T15:26:24.193Z,2.63
2022-10-22T15:28:52.570Z,2.13
2022-10-22T15:31:49.897Z,2.80
2022-10-22T15:34:27.606Z,3.17
2022-10-22T15:36:59.931Z,2.70
2022-10-22T15:39:31.077Z,3.07
2022-10-22T15:42:00.812Z,2.70
2022-10-22T15:44:31.622Z,2.53
2022-10-22T15:47:00.760Z,2.37
2022-10-22T15:49:30.387Z,2.17
2022-10-22T15:52:00.957Z,2.40
2022-10-22T15:54:31.736Z,2.53
2022-10-22T15:57:03.540Z,2.60
2022-10-22T15:59:31.929Z,2.50
2022-10-22T16:02:01.438Z,2.63
2022-10-22T16:04:29.881Z,2.67
2022-10-22T16:06:59.835Z,2.00
2022-10-22T16:09:29.023Z,3.47
2022-10-22T16:11:57.537Z,2.50
2022-10-22T16:14:26.064Z,1.97
2022-10-22T16:16:56.451Z,2.00
2022-10-22T16:19:25.814Z,2.30
2022-10-22T16:21:56.597Z,1.90
2022-10-22T16:24:26.687Z,2.17
2022-10-22T16:26:55.285Z,2.30
2022-10-22T16:29:23.640Z,2.30
2022-10-22T16:31:51.930Z,2.23
2022-10-22T16:34:20.334Z,2.03
2022-10-22T16:36:48.919Z,2.43
2022-10-22T16:39:17.489Z,2.53
2022-10-22T16:41:47.412Z,2.70
2022-10-22T16:44:15.757Z,2.30
2022-10-22T16:46:44.117Z,2.30
2022-10-22T16:49:14.309Z,3.00
2022-10-22T16:51:42.638Z,2.30
2022-10-22T16:54:14.137Z,2.17
2022-10-22T16:56:42.550Z,2.37
2022-10-22T16:59:12.242Z,3.03
2022-10-22T17:01:41.499Z,3.67
2022-10-22T17:04:10.794Z,3.73
2022-10-22T17:06:39.118Z,3.77
2022-10-22T17:09:07.514Z,3.40
2022-10-22T17:11:39.150Z,3.33
2022-10-22T17:14:11.265Z,2.00
2022-10-22T17:16:39.616Z,2.50
2022-10-22T17:19:08.331Z,2.50
2022-10-22T17:21:36.608Z,2.83
2022-10-22T17:24:05.336Z,2.70
2022-10-22T17:26:35.496Z,2.80
2022-10-22T17:29:04.187Z,2.43
2022-10-22T17:31:37.438Z,2.77
2022-10-22T17:34:08.608Z,2.70
2022-10-22T17:36:38.002Z,2.83
2022-10-22T17:39:09.000Z,2.50
2022-10-22T17:41:38.917Z,2.63
2022-10-22T17:44:09.910Z,3.60
2022-10-22T17:46:40.591Z,3.53
2022-10-22T17:49:18.459Z,4.10
2022-10-22T17:51:47.222Z,4.40
2022-10-22T17:54:16.052Z,3.37
2022-10-22T17:56:44.670Z,4.90
2022-10-22T17:59:17.150Z,4.17
2022-10-22T18:01:47.774Z,4.30
2022-10-22T18:04:19.157Z,5.00
2022-10-22T18:06:49.743Z,5.50
2022-10-22T18:09:19.978Z,4.90
2022-10-22T18:11:49.828Z,6.30
2022-10-22T18:14:19.511Z,8.00
2022-10-22T18:16:50.113Z,8.60
2022-10-22T18:19:22.411Z,6.97
2022-10-22T18:21:51.494Z,6.63
2022-10-22T18:24:20.410Z,8.20
2022-10-22T18:26:48.738Z,6.87
2022-10-22T18:29:20.750Z,6.43
2022-10-22T18:31:50.656Z,7.40
2022-10-22T18:34:21.721Z,7.30
2022-10-22T18:36:52.401Z,7.93
2022-10-22T18:39:20.813Z,9.20
2022-10-22T18:41:49.555Z,7.87
2022-10-22T18:44:18.493Z,8.87
2022-10-22T18:46:46.858Z,8.87
2022-10-22T18:49:20.183Z,8.37
2022-10-22T18:51:52.832Z,9.23
2022-10-22T18:54:23.903Z,8.43
2022-10-22T18:56:53.310Z,8.57
2022-10-22T18:59:24.121Z,8.67
2022-10-22T19:01:54.444Z,9.33
2022-10-22T19:04:24.417Z,9.53
2022-10-22T19:06:52.836Z,9.47
2022-10-22T19:09:29.653Z,9.70
2022-10-22T19:11:58.556Z,8.93
2022-10-22T19:14:27.230Z,9.73
2022-10-22T19:16:55.769Z,8.80
2022-10-22T19:19:25.645Z,9.07
2022-10-22T19:21:56.478Z,7.67
2022-10-22T19:24:24.851Z,9.43
2022-10-22T19:26:53.299Z,7.53
2022-10-22T19:29:22.572Z,8.50
2022-10-22T19:31:51.969Z,7.27
2022-10-22T19:34:21.425Z,8.47
2022-10-22T19:36:52.118Z,7.40
2022-10-22T19:39:20.713Z,8.50
2022-10-22T19:41:49.427Z,7.00
2022-10-22T19:44:17.908Z,8.10
2022-10-22T19:46:46.342Z,8.03
2022-10-22T19:49:18.959Z,7.40
2022-10-22T19:51:51.899Z,7.23
2022-10-22T19:54:20.611Z,7.80
2022-10-22T19:56:50.313Z,8.00
2022-10-22T19:59:22.875Z,8.20
2022-10-22T20:01:51.555Z,7.77
2022-10-22T20:04:20.850Z,9.90
2022-10-22T20:06:50.875Z,11.33
2022-10-22T20:09:19.283Z,9.90
2022-10-22T20:11:48.138Z,8.77
2022-10-22T20:14:16.654Z,8.40
2022-10-22T20:16:45.078Z,8.63
2022-10-22T20:19:16.352Z,8.30
2022-10-22T20:21:48.376Z,7.40
2022-10-22T20:24:18.455Z,7.43
2022-10-22T20:26:47.383Z,7.50
2022-10-22T20:29:18.951Z,7.63
2022-10-22T20:31:48.571Z,6.90
2022-10-22T20:34:17.464Z,6.27
2022-10-22T20:36:45.879Z,7.70
2022-10-22T20:39:19.067Z,6.43
2022-10-22T20:41:47.565Z,6.83
2022-10-22T20:44:19.124Z,6.77
2022-10-22T20:46:47.582Z,7.10
2022-10-22T20:49:17.049Z,7.00
2022-10-22T20:51:45.563Z,6.90
2022-10-22T20:54:17.745Z,7.70
2022-10-22T20:56:48.004Z,8.10
2022-10-22T20:59:17.353Z,7.23
2022-10-22T21:01:49.143Z,7.23
2022-10-22T21:04:19.542Z,8.47
2022-10-22T21:06:49.888Z,7.50
2022-10-22T21:09:20.406Z,7.87
2022-10-22T21:11:49.005Z,7.80
2022-10-22T21:14:20.203Z,8.60
2022-10-22T21:16:51.345Z,8.97
2022-10-22T21:19:22.543Z,8.37
2022-10-22T21:21:51.262Z,8.70
2022-10-22T21:24:24.606Z,9.00
2022-10-22T21:26:54.260Z,7.70
2022-10-22T21:29:22.936Z,8.07
2022-10-22T21:31:51.444Z,8.20
2022-10-22T21:34:20.410Z,8.43
2022-10-22T21:36:49.178Z,8.60
2022-10-22T21:39:18.007Z,9.43
2022-10-22T21:41:48.161Z,8.83
2022-10-22T21:44:16.941Z,8.97
2022-10-22T21:46:45.520Z,7.87
2022-10-22T21:49:14.431Z,9.33
2022-10-22T21:51:44.762Z,8.13
2022-10-22T21:54:13.591Z,7.60
2022-10-22T21:56:43.180Z,9.13
2022-10-22T21:59:13.186Z,9.10
2022-10-22T22:01:41.912Z,8.30
2022-10-22T22:04:10.420Z,8.60
2022-10-22T22:06:39.489Z,8.90
2022-10-22T22:09:10.740Z,7.80
2022-10-22T22:11:39.179Z,9.40
2022-10-22T22:14:07.464Z,8.80
2022-10-22T22:16:37.382Z,8.70
2022-10-22T22:19:08.219Z,8.00
2022-10-22T22:21:39.182Z,8.13
2022-10-22T22:24:10.924Z,8.30
2022-10-22T22:26:40.386Z,7.97
2022-10-22T22:29:08.860Z,8.97
2022-10-22T22:31:38.693Z,8.30
2022-10-22T22:34:09.668Z,8.50
2022-10-22T22:36:40.714Z,10.40
2022-10-22T22:39:13.403Z,8.23
2022-10-22T22:41:42.020Z,7.77
2022-10-22T22:44:12.959Z,7.90
2022-10-22T22:46:42.741Z,8.37
2022-10-22T22:49:11.710Z,8.80
2022-10-22T22:51:40.382Z,8.00
2022-10-22T22:54:08.905Z,9.60
2022-10-22T22:56:37.394Z,9.70
2022-10-22T22:59:07.092Z,8.87
2022-10-22T23:01:37.634Z,10.00
2022-10-22T23:04:12.731Z,10.10
2022-10-22T23:06:41.496Z,10.60
2022-10-22T23:09:13.078Z,10.37
2022-10-22T23:11:43.069Z,10.50
2022-10-22T23:14:14.822Z,9.30
2022-10-22T23:16:46.617Z,9.00
2022-10-22T23:19:19.169Z,9.40
2022-10-22T23:21:50.646Z,8.57
2022-10-22T23:24:22.678Z,10.07
2022-10-22T23:26:53.516Z,8.67
2022-10-22T23:29:24.515Z,8.67
2022-10-22T23:31:54.109Z,9.30
2022-10-22T23:34:26.305Z,9.50
2022-10-22T23:36:55.886Z,9.47
2022-10-22T23:39:27.727Z,9.50
2022-10-22T23:41:56.678Z,9.30
2022-10-22T23:44:26.311Z,9.03
2022-10-22T23:46:55.213Z,8.90
2022-10-22T23:49:24.961Z,8.30
2022-10-22T23:51:53.399Z,9.30
2022-10-22T23:54:21.745Z,9.30
2022-10-22T23:56:50.113Z,8.70
2022-10-22T23:59:19.555Z,9.43
